Villa Cisneros, Western Sahara
Current Conditions -  °F | °C
As of 8:00 AM on Thursday 23 Oct 2014 (Local Time) from GMMH Reporting Station
Clear Clear  
Wind Chill: 72°   Ceiling: Unl
Heat Index: 72°   Visibility: 6mi
Dew Point: 61°   Wind: 10mph
Humidity: 69%   Direction: 10°N
Pressure: 29.97"   Gusts: NA
Location:  23.7°N, 15.94°W
Report Text: GMMH 230800Z 01009KT CAVOK 22/16 Q1015 NOSIG
Loading
Personal Weather Stations






























Interactive Weather Map
Tropical Storm Tracking
New forecast layout! Learn more

10-Day Weather Forecast

Advertisements
Track Severe Weather on mobile